General Juan N Alvarez International Airport
MMAA : now visible

Airfield :











YOU CAN JOIN US ON...

 
LOGIN :

Register | Disclaimer

   EN    FR    IT 

 









Legend :    VFR   Marginal VFR   IFR   Intensive IFR   Very Intensive IFR
Visi :
Ceiling :
>= 8 km
>= 3000ft
5 to 8 km
1000 to 3000 ft
1500m to 5 km
500 to 1000 ft
800 to 1500m
200 to 500 ft
< 800m
< 200 ft
Symbols :   Thunderstorms  Fog  Heavy snow  Heavy precipitations  Wind > 20 kt






- Airport Elevation : 16 ft
- IATA code : ACA


MMAA - General Juan N Alvarez International

CURRENT METAR :
  • 192042Z 22007KT 7SM FEW100 SCT300 31/25 A2977 RMK SLP080 57020 955 8/032 HZY DSNT CB NW TCU N NE

EXPIRED METARs :
  • 191946Z 24004KT 7SM FEW020 SCT300 31/26 A2979 RMK 8/102 HZY DSNT CB N SW NW
  • 191842Z 15008KT 7SM FEW020 SCT300 30/26 A2982 RMK 8/102 HZY DSNT CB S TCU NE E

TAF TAF MMAA
Valid from the 19 at 18:00 until the 21 at 00:00 UTC


191737Z 1918/2024 24010KT P6SM SCT020 SCT300 TX31/1920Z TN25/2012Z
FM200300 24005KT P6SM SCT015 SCT300
FM201200 33005KT P6SM SCT015 SCT300
FM201800 32005KT P6SM SCT080 SCT300
MMFR FIR / North America



MET'MAP, your aeronautical weather chart ! - Copyright ORBIFLY December 2007 - Disclaimer

ORBIFLY MET'MAP TEAM :

Programming & Development : Alexandra Zaïnal
Concept & original design : Baudouin d'Aumeries
Assistance for programming : Marc-Olivier Méhu
Technical & hardware support : Manuel Goepfert

Contact : metmap@orbifly.com




SOURCES & CREDITS :

   NOAA       Earth
Advisory